sensor_id;sensor_type;location;lat;lon;timestamp;P1;durP1;ratioP1;P2;durP2;ratioP2
47539;SDS011;33280;52.152;21.052;2022-11-20T00:00:17;45.13;;;19.07;;
47539;SDS011;33280;52.152;21.052;2022-11-20T00:02:44;46.90;;;19.90;;
47539;SDS011;33280;52.152;21.052;2022-11-20T00:05:11;47.30;;;20.20;;
47539;SDS011;33280;52.152;21.052;2022-11-20T00:07:38;45.37;;;19.73;;
47539;SDS011;33280;52.152;21.052;2022-11-20T00:10:05;45.03;;;19.10;;
47539;SDS011;33280;52.152;21.052;2022-11-20T00:12:32;45.53;;;19.77;;
47539;SDS011;33280;52.152;21.052;2022-11-20T00:14:58;47.80;;;19.87;;
47539;SDS011;33280;52.152;21.052;2022-11-20T00:17:25;42.17;;;18.70;;
47539;SDS011;33280;52.152;21.052;2022-11-20T00:19:52;43.37;;;19.73;;
47539;SDS011;33280;52.152;21.052;2022-11-20T00:22:19;44.90;;;19.07;;
47539;SDS011;33280;52.152;21.052;2022-11-20T00:24:46;40.80;;;19.03;;
47539;SDS011;33280;52.152;21.052;2022-11-20T00:27:13;44.30;;;19.20;;
47539;SDS011;33280;52.152;21.052;2022-11-20T00:29:40;41.63;;;18.70;;
47539;SDS011;33280;52.152;21.052;2022-11-20T00:32:06;46.27;;;19.93;;
47539;SDS011;33280;52.152;21.052;2022-11-20T00:34:33;46.83;;;19.53;;
47539;SDS011;33280;52.152;21.052;2022-11-20T00:37:00;45.90;;;19.53;;
47539;SDS011;33280;52.152;21.052;2022-11-20T00:39:27;44.77;;;19.60;;
47539;SDS011;33280;52.152;21.052;2022-11-20T00:41:53;42.47;;;18.80;;
47539;SDS011;33280;52.152;21.052;2022-11-20T00:44:20;43.23;;;18.50;;
47539;SDS011;33280;52.152;21.052;2022-11-20T00:46:47;45.73;;;19.20;;
47539;SDS011;33280;52.152;21.052;2022-11-20T00:49:14;42.40;;;19.30;;
47539;SDS011;33280;52.152;21.052;2022-11-20T00:51:41;40.77;;;17.93;;
47539;SDS011;33280;52.152;21.052;2022-11-20T00:54:10;48.13;;;20.70;;
47539;SDS011;33280;52.152;21.052;2022-11-20T00:56:37;43.03;;;18.57;;
47539;SDS011;33280;52.152;21.052;2022-11-20T00:59:04;44.27;;;18.67;;
47539;SDS011;33280;52.152;21.052;2022-11-20T01:01:30;46.47;;;19.00;;
47539;SDS011;33280;52.152;21.052;2022-11-20T01:03:59;42.17;;;19.33;;
47539;SDS011;33280;52.152;21.052;2022-11-20T01:06:30;44.30;;;19.47;;
47539;SDS011;33280;52.152;21.052;2022-11-20T01:09:07;44.10;;;19.33;;
47539;SDS011;33280;52.152;21.052;2022-11-20T01:11:39;43.23;;;19.10;;
47539;SDS011;33280;52.152;21.052;2022-11-20T01:14:10;40.97;;;18.13;;
47539;SDS011;33280;52.152;21.052;2022-11-20T01:16:40;45.57;;;19.07;;
47539;SDS011;33280;52.152;21.052;2022-11-20T01:19:10;47.03;;;19.10;;
47539;SDS011;33280;52.152;21.052;2022-11-20T01:21:44;43.47;;;18.93;;
47539;SDS011;33280;52.152;21.052;2022-11-20T01:24:12;46.40;;;19.27;;
47539;SDS011;33280;52.152;21.052;2022-11-20T01:26:41;47.77;;;19.77;;
47539;SDS011;33280;52.152;21.052;2022-11-20T01:29:12;42.00;;;19.40;;
47539;SDS011;33280;52.152;21.052;2022-11-20T01:31:46;43.63;;;18.70;;
47539;SDS011;33280;52.152;21.052;2022-11-20T01:34:14;42.67;;;18.90;;
47539;SDS011;33280;52.152;21.052;2022-11-20T01:36:43;47.37;;;18.77;;
47539;SDS011;33280;52.152;21.052;2022-11-20T01:39:15;41.00;;;18.87;;
47539;SDS011;33280;52.152;21.052;2022-11-20T01:41:44;47.20;;;18.80;;
47539;SDS011;33280;52.152;21.052;2022-11-20T01:52:38;42.73;;;19.27;;
47539;SDS011;33280;52.152;21.052;2022-11-20T01:55:19;49.60;;;20.40;;
47539;SDS011;33280;52.152;21.052;2022-11-20T01:57:52;47.43;;;18.90;;
47539;SDS011;33280;52.152;21.052;2022-11-20T02:00:19;49.63;;;20.83;;
47539;SDS011;33280;52.152;21.052;2022-11-20T02:02:48;52.53;;;20.53;;
47539;SDS011;33280;52.152;21.052;2022-11-20T02:05:20;50.73;;;20.10;;
47539;SDS011;33280;52.152;21.052;2022-11-20T02:07:51;47.10;;;20.17;;
47539;SDS011;33280;52.152;21.052;2022-11-20T02:10:20;46.63;;;20.73;;
47539;SDS011;33280;52.152;21.052;2022-11-20T02:12:47;46.07;;;20.90;;
47539;SDS011;33280;52.152;21.052;2022-11-20T02:15:33;48.57;;;21.27;;
47539;SDS011;33280;52.152;21.052;2022-11-20T02:18:00;47.03;;;20.40;;
47539;SDS011;33280;52.152;21.052;2022-11-20T02:20:27;45.33;;;20.53;;
47539;SDS011;33280;52.152;21.052;2022-11-20T02:23:04;47.10;;;21.07;;
47539;SDS011;33280;52.152;21.052;2022-11-20T02:25:32;48.33;;;21.13;;
47539;SDS011;33280;52.152;21.052;2022-11-20T02:28:01;46.67;;;21.07;;
47539;SDS011;33280;52.152;21.052;2022-11-20T02:30:29;48.43;;;20.97;;
47539;SDS011;33280;52.152;21.052;2022-11-20T02:32:55;46.80;;;20.67;;
47539;SDS011;33280;52.152;21.052;2022-11-20T02:37:54;46.97;;;20.07;;
47539;SDS011;33280;52.152;21.052;2022-11-20T02:40:22;45.57;;;20.20;;
47539;SDS011;33280;52.152;21.052;2022-11-20T02:42:52;49.17;;;21.07;;
47539;SDS011;33280;52.152;21.052;2022-11-20T02:45:20;45.13;;;20.03;;
47539;SDS011;33280;52.152;21.052;2022-11-20T02:47:49;47.23;;;20.73;;
47539;SDS011;33280;52.152;21.052;2022-11-20T02:50:16;48.90;;;20.67;;
47539;SDS011;33280;52.152;21.052;2022-11-20T02:52:43;49.07;;;20.43;;
47539;SDS011;33280;52.152;21.052;2022-11-20T02:55:10;51.07;;;21.10;;
47539;SDS011;33280;52.152;21.052;2022-11-20T02:57:37;52.43;;;21.57;;
47539;SDS011;33280;52.152;21.052;2022-11-20T03:00:04;48.63;;;20.90;;
47539;SDS011;33280;52.152;21.052;2022-11-20T03:02:33;47.03;;;20.67;;
47539;SDS011;33280;52.152;21.052;2022-11-20T03:05:00;48.43;;;21.47;;
47539;SDS011;33280;52.152;21.052;2022-11-20T03:07:27;44.97;;;20.73;;
47539;SDS011;33280;52.152;21.052;2022-11-20T03:09:54;47.57;;;20.73;;
47539;SDS011;33280;52.152;21.052;2022-11-20T03:12:20;52.07;;;21.83;;
47539;SDS011;33280;52.152;21.052;2022-11-20T03:14:47;48.00;;;21.17;;
47539;SDS011;33280;52.152;21.052;2022-11-20T03:17:18;50.23;;;21.67;;
47539;SDS011;33280;52.152;21.052;2022-11-20T03:19:45;44.80;;;20.43;;
47539;SDS011;33280;52.152;21.052;2022-11-20T03:22:12;49.80;;;20.43;;
47539;SDS011;33280;52.152;21.052;2022-11-20T03:24:39;48.40;;;21.23;;
47539;SDS011;33280;52.152;21.052;2022-11-20T03:27:06;50.67;;;21.53;;
47539;SDS011;33280;52.152;21.052;2022-11-20T03:29:34;48.03;;;21.00;;
47539;SDS011;33280;52.152;21.052;2022-11-20T03:32:01;49.23;;;21.70;;
47539;SDS011;33280;52.152;21.052;2022-11-20T03:34:28;55.03;;;21.37;;
47539;SDS011;33280;52.152;21.052;2022-11-20T03:36:55;50.77;;;21.70;;
47539;SDS011;33280;52.152;21.052;2022-11-20T03:39:22;47.83;;;21.03;;
47539;SDS011;33280;52.152;21.052;2022-11-20T03:41:49;49.87;;;20.83;;
47539;SDS011;33280;52.152;21.052;2022-11-20T03:44:16;51.30;;;21.03;;
47539;SDS011;33280;52.152;21.052;2022-11-20T03:46:43;46.33;;;20.73;;
47539;SDS011;33280;52.152;21.052;2022-11-20T03:49:10;48.27;;;21.03;;
47539;SDS011;33280;52.152;21.052;2022-11-20T03:51:36;50.10;;;20.97;;
47539;SDS011;33280;52.152;21.052;2022-11-20T03:54:05;48.17;;;21.33;;
47539;SDS011;33280;52.152;21.052;2022-11-20T03:56:34;50.90;;;21.67;;
47539;SDS011;33280;52.152;21.052;2022-11-20T03:59:04;51.20;;;21.40;;
47539;SDS011;33280;52.152;21.052;2022-11-20T04:01:32;51.67;;;21.40;;
47539;SDS011;33280;52.152;21.052;2022-11-20T04:04:00;48.90;;;21.43;;
47539;SDS011;33280;52.152;21.052;2022-11-20T04:06:28;54.17;;;22.23;;
47539;SDS011;33280;52.152;21.052;2022-11-20T04:08:57;57.80;;;21.53;;
47539;SDS011;33280;52.152;21.052;2022-11-20T04:11:26;50.37;;;21.83;;
47539;SDS011;33280;52.152;21.052;2022-11-20T04:13:57;48.43;;;20.50;;
47539;SDS011;33280;52.152;21.052;2022-11-20T04:16:28;49.93;;;20.70;;
47539;SDS011;33280;52.152;21.052;2022-11-20T04:18:57;59.93;;;21.80;;
47539;SDS011;33280;52.152;21.052;2022-11-20T04:21:25;52.87;;;21.70;;
47539;SDS011;33280;52.152;21.052;2022-11-20T04:23:53;48.67;;;21.27;;
47539;SDS011;33280;52.152;21.052;2022-11-20T04:26:21;53.03;;;22.43;;
47539;SDS011;33280;52.152;21.052;2022-11-20T04:28:57;49.83;;;21.23;;
47539;SDS011;33280;52.152;21.052;2022-11-20T04:31:26;50.73;;;21.60;;
47539;SDS011;33280;52.152;21.052;2022-11-20T04:33:54;50.07;;;21.33;;
47539;SDS011;33280;52.152;21.052;2022-11-20T04:36:23;50.50;;;21.27;;
47539;SDS011;33280;52.152;21.052;2022-11-20T04:38:51;48.33;;;21.67;;
47539;SDS011;33280;52.152;21.052;2022-11-20T04:41:23;48.73;;;20.47;;
47539;SDS011;33280;52.152;21.052;2022-11-20T04:43:58;48.20;;;20.67;;
47539;SDS011;33280;52.152;21.052;2022-11-20T04:46:30;47.13;;;20.93;;
47539;SDS011;33280;52.152;21.052;2022-11-20T04:48:59;47.20;;;19.30;;
47539;SDS011;33280;52.152;21.052;2022-11-20T04:51:26;46.03;;;20.43;;
47539;SDS011;33280;52.152;21.052;2022-11-20T04:53:53;47.87;;;20.53;;
47539;SDS011;33280;52.152;21.052;2022-11-20T04:56:21;46.97;;;19.03;;
47539;SDS011;33280;52.152;21.052;2022-11-20T04:58:48;46.07;;;20.10;;
47539;SDS011;33280;52.152;21.052;2022-11-20T05:01:15;50.43;;;20.63;;
47539;SDS011;33280;52.152;21.052;2022-11-20T05:03:44;51.57;;;20.50;;
47539;SDS011;33280;52.152;21.052;2022-11-20T05:06:12;45.67;;;19.13;;
47539;SDS011;33280;52.152;21.052;2022-11-20T05:08:41;44.03;;;20.03;;
47539;SDS011;33280;52.152;21.052;2022-11-20T05:11:12;48.40;;;20.77;;
47539;SDS011;33280;52.152;21.052;2022-11-20T05:13:41;47.20;;;20.03;;
47539;SDS011;33280;52.152;21.052;2022-11-20T05:16:11;46.77;;;19.13;;
47539;SDS011;33280;52.152;21.052;2022-11-20T05:18:40;45.33;;;19.33;;
47539;SDS011;33280;52.152;21.052;2022-11-20T05:21:07;45.23;;;20.73;;
47539;SDS011;33280;52.152;21.052;2022-11-20T05:23:35;47.67;;;20.53;;
47539;SDS011;33280;52.152;21.052;2022-11-20T05:26:03;47.33;;;20.33;;
47539;SDS011;33280;52.152;21.052;2022-11-20T05:28:31;47.37;;;20.23;;
47539;SDS011;33280;52.152;21.052;2022-11-20T05:31:06;46.20;;;19.57;;
47539;SDS011;33280;52.152;21.052;2022-11-20T05:33:34;49.90;;;19.33;;
47539;SDS011;33280;52.152;21.052;2022-11-20T05:36:02;54.33;;;21.33;;
47539;SDS011;33280;52.152;21.052;2022-11-20T05:38:30;48.73;;;21.33;;
47539;SDS011;33280;52.152;21.052;2022-11-20T05:41:32;48.73;;;20.83;;
47539;SDS011;33280;52.152;21.052;2022-11-20T05:43:51;46.07;;;19.47;;
47539;SDS011;33280;52.152;21.052;2022-11-20T05:46:19;46.67;;;20.07;;
47539;SDS011;33280;52.152;21.052;2022-11-20T05:48:54;45.90;;;20.27;;
47539;SDS011;33280;52.152;21.052;2022-11-20T05:51:21;51.70;;;20.63;;
47539;SDS011;33280;52.152;21.052;2022-11-20T05:53:49;46.30;;;19.53;;
47539;SDS011;33280;52.152;21.052;2022-11-20T05:56:17;46.70;;;20.10;;
47539;SDS011;33280;52.152;21.052;2022-11-20T05:58:45;49.67;;;20.87;;
47539;SDS011;33280;52.152;21.052;2022-11-20T06:01:17;42.07;;;19.33;;
47539;SDS011;33280;52.152;21.052;2022-11-20T06:03:49;49.43;;;21.17;;
47539;SDS011;33280;52.152;21.052;2022-11-20T06:06:17;43.80;;;18.93;;
47539;SDS011;33280;52.152;21.052;2022-11-20T06:08:46;50.80;;;20.63;;
47539;SDS011;33280;52.152;21.052;2022-11-20T06:11:14;45.17;;;20.13;;
47539;SDS011;33280;52.152;21.052;2022-11-20T06:13:42;50.47;;;20.83;;
47539;SDS011;33280;52.152;21.052;2022-11-20T06:16:09;51.23;;;20.70;;
47539;SDS011;33280;52.152;21.052;2022-11-20T06:18:37;49.43;;;20.70;;
47539;SDS011;33280;52.152;21.052;2022-11-20T06:21:05;46.83;;;19.90;;
47539;SDS011;33280;52.152;21.052;2022-11-20T06:23:37;50.97;;;20.80;;
47539;SDS011;33280;52.152;21.052;2022-11-20T06:26:05;50.00;;;21.63;;
47539;SDS011;33280;52.152;21.052;2022-11-20T06:28:33;53.30;;;21.43;;
47539;SDS011;33280;52.152;21.052;2022-11-20T06:31:01;49.93;;;21.00;;
47539;SDS011;33280;52.152;21.052;2022-11-20T06:33:28;48.53;;;20.73;;
47539;SDS011;33280;52.152;21.052;2022-11-20T06:35:58;46.77;;;20.73;;
47539;SDS011;33280;52.152;21.052;2022-11-20T06:38:34;51.07;;;22.47;;
47539;SDS011;33280;52.152;21.052;2022-11-20T06:41:01;49.90;;;21.73;;
47539;SDS011;33280;52.152;21.052;2022-11-20T06:43:29;52.73;;;22.20;;
47539;SDS011;33280;52.152;21.052;2022-11-20T06:45:57;50.07;;;21.47;;
47539;SDS011;33280;52.152;21.052;2022-11-20T06:48:26;55.13;;;21.97;;
47539;SDS011;33280;52.152;21.052;2022-11-20T06:50:54;49.97;;;20.70;;
47539;SDS011;33280;52.152;21.052;2022-11-20T06:53:21;49.90;;;21.10;;
47539;SDS011;33280;52.152;21.052;2022-11-20T06:55:49;51.43;;;22.27;;
47539;SDS011;33280;52.152;21.052;2022-11-20T06:58:16;52.97;;;21.43;;
47539;SDS011;33280;52.152;21.052;2022-11-20T07:00:44;51.53;;;22.50;;
47539;SDS011;33280;52.152;21.052;2022-11-20T07:03:11;50.83;;;20.63;;
47539;SDS011;33280;52.152;21.052;2022-11-20T07:05:38;51.20;;;21.30;;
47539;SDS011;33280;52.152;21.052;2022-11-20T07:08:06;57.07;;;23.10;;
47539;SDS011;33280;52.152;21.052;2022-11-20T07:10:33;48.93;;;21.63;;
47539;SDS011;33280;52.152;21.052;2022-11-20T07:13:01;49.03;;;21.00;;
47539;SDS011;33280;52.152;21.052;2022-11-20T07:15:28;51.57;;;22.27;;
47539;SDS011;33280;52.152;21.052;2022-11-20T07:17:55;56.53;;;21.87;;
47539;SDS011;33280;52.152;21.052;2022-11-20T07:20:24;49.97;;;21.50;;
47539;SDS011;33280;52.152;21.052;2022-11-20T07:22:54;52.17;;;21.67;;
47539;SDS011;33280;52.152;21.052;2022-11-20T07:25:25;49.97;;;21.77;;
47539;SDS011;33280;52.152;21.052;2022-11-20T07:28:00;46.50;;;20.57;;
47539;SDS011;33280;52.152;21.052;2022-11-20T07:30:27;48.13;;;21.37;;
47539;SDS011;33280;52.152;21.052;2022-11-20T07:32:55;48.47;;;21.07;;
47539;SDS011;33280;52.152;21.052;2022-11-20T07:35:23;47.50;;;20.77;;
47539;SDS011;33280;52.152;21.052;2022-11-20T07:37:50;49.83;;;21.27;;
47539;SDS011;33280;52.152;21.052;2022-11-20T07:40:17;50.37;;;21.53;;
47539;SDS011;33280;52.152;21.052;2022-11-20T07:42:49;46.53;;;20.70;;
47539;SDS011;33280;52.152;21.052;2022-11-20T07:45:19;47.50;;;20.60;;
47539;SDS011;33280;52.152;21.052;2022-11-20T07:47:48;48.03;;;21.23;;
47539;SDS011;33280;52.152;21.052;2022-11-20T07:50:18;47.10;;;20.40;;
47539;SDS011;33280;52.152;21.052;2022-11-20T07:52:45;47.10;;;21.07;;
47539;SDS011;33280;52.152;21.052;2022-11-20T07:55:12;48.10;;;19.93;;
47539;SDS011;33280;52.152;21.052;2022-11-20T07:57:40;47.70;;;21.73;;
47539;SDS011;33280;52.152;21.052;2022-11-20T08:00:08;46.10;;;20.13;;
47539;SDS011;33280;52.152;21.052;2022-11-20T08:02:37;47.53;;;22.37;;
47539;SDS011;33280;52.152;21.052;2022-11-20T08:05:05;47.73;;;22.03;;
47539;SDS011;33280;52.152;21.052;2022-11-20T08:07:40;54.90;;;22.10;;
47539;SDS011;33280;52.152;21.052;2022-11-20T08:10:09;47.50;;;21.57;;
47539;SDS011;33280;52.152;21.052;2022-11-20T08:12:48;48.10;;;22.07;;
47539;SDS011;33280;52.152;21.052;2022-11-20T08:15:35;48.40;;;22.97;;
47539;SDS011;33280;52.152;21.052;2022-11-20T08:18:03;46.27;;;21.50;;
47539;SDS011;33280;52.152;21.052;2022-11-20T08:20:58;53.30;;;22.33;;
47539;SDS011;33280;52.152;21.052;2022-11-20T08:23:28;47.47;;;22.73;;
47539;SDS011;33280;52.152;21.052;2022-11-20T08:25:55;50.33;;;22.77;;
47539;SDS011;33280;52.152;21.052;2022-11-20T08:28:22;47.87;;;22.63;;
47539;SDS011;33280;52.152;21.052;2022-11-20T08:30:49;51.13;;;22.23;;
47539;SDS011;33280;52.152;21.052;2022-11-20T08:33:16;52.03;;;23.23;;
47539;SDS011;33280;52.152;21.052;2022-11-20T08:35:44;51.53;;;22.93;;
47539;SDS011;33280;52.152;21.052;2022-11-20T08:38:11;49.47;;;23.30;;
47539;SDS011;33280;52.152;21.052;2022-11-20T08:40:38;55.87;;;23.90;;
47539;SDS011;33280;52.152;21.052;2022-11-20T08:43:05;49.97;;;22.37;;
47539;SDS011;33280;52.152;21.052;2022-11-20T08:45:32;52.87;;;24.10;;
47539;SDS011;33280;52.152;21.052;2022-11-20T08:48:01;47.83;;;22.80;;
47539;SDS011;33280;52.152;21.052;2022-11-20T08:50:29;52.17;;;22.77;;
47539;SDS011;33280;52.152;21.052;2022-11-20T08:53:03;50.83;;;23.43;;
47539;SDS011;33280;52.152;21.052;2022-11-20T08:55:31;52.07;;;23.13;;
47539;SDS011;33280;52.152;21.052;2022-11-20T08:57:58;53.10;;;23.50;;
47539;SDS011;33280;52.152;21.052;2022-11-20T09:00:29;55.97;;;24.03;;
47539;SDS011;33280;52.152;21.052;2022-11-20T09:02:56;52.57;;;23.43;;
47539;SDS011;33280;52.152;21.052;2022-11-20T09:05:24;50.93;;;23.63;;
47539;SDS011;33280;52.152;21.052;2022-11-20T09:07:51;48.30;;;22.57;;
47539;SDS011;33280;52.152;21.052;2022-11-20T09:10:18;50.13;;;23.33;;
47539;SDS011;33280;52.152;21.052;2022-11-20T09:12:50;50.63;;;22.47;;
47539;SDS011;33280;52.152;21.052;2022-11-20T09:15:18;45.77;;;21.33;;
47539;SDS011;33280;52.152;21.052;2022-11-20T09:17:55;47.07;;;21.90;;
47539;SDS011;33280;52.152;21.052;2022-11-20T09:20:26;48.73;;;22.30;;
47539;SDS011;33280;52.152;21.052;2022-11-20T09:22:55;45.33;;;21.43;;
47539;SDS011;33280;52.152;21.052;2022-11-20T09:25:23;50.87;;;22.63;;
47539;SDS011;33280;52.152;21.052;2022-11-20T09:27:57;50.47;;;22.83;;
47539;SDS011;33280;52.152;21.052;2022-11-20T09:30:25;50.90;;;22.30;;
47539;SDS011;33280;52.152;21.052;2022-11-20T09:32:52;47.67;;;21.23;;
47539;SDS011;33280;52.152;21.052;2022-11-20T09:35:19;44.37;;;21.27;;
47539;SDS011;33280;52.152;21.052;2022-11-20T09:37:46;49.77;;;21.90;;
47539;SDS011;33280;52.152;21.052;2022-11-20T09:40:20;54.20;;;22.50;;
47539;SDS011;33280;52.152;21.052;2022-11-20T09:53:48;52.87;;;22.13;;
47539;SDS011;33280;52.152;21.052;2022-11-20T09:56:27;52.37;;;23.27;;
47539;SDS011;33280;52.152;21.052;2022-11-20T09:58:59;48.97;;;21.77;;
47539;SDS011;33280;52.152;21.052;2022-11-20T10:01:32;48.00;;;22.27;;
47539;SDS011;33280;52.152;21.052;2022-11-20T10:06:42;51.27;;;22.63;;
47539;SDS011;33280;52.152;21.052;2022-11-20T10:09:35;54.40;;;22.97;;
47539;SDS011;33280;52.152;21.052;2022-11-20T10:12:09;53.50;;;23.00;;
47539;SDS011;33280;52.152;21.052;2022-11-20T10:20:38;52.63;;;23.33;;
47539;SDS011;33280;52.152;21.052;2022-11-20T10:25:38;50.07;;;23.03;;
47539;SDS011;33280;52.152;21.052;2022-11-20T10:28:12;51.07;;;22.80;;
47539;SDS011;33280;52.152;21.052;2022-11-20T10:31:03;54.50;;;21.97;;
47539;SDS011;33280;52.152;21.052;2022-11-20T10:33:37;47.67;;;21.57;;
47539;SDS011;33280;52.152;21.052;2022-11-20T10:36:30;49.03;;;21.13;;
47539;SDS011;33280;52.152;21.052;2022-11-20T10:39:06;46.57;;;21.07;;
47539;SDS011;33280;52.152;21.052;2022-11-20T10:41:43;46.10;;;21.23;;
47539;SDS011;33280;52.152;21.052;2022-11-20T10:44:16;48.77;;;20.80;;
47539;SDS011;33280;52.152;21.052;2022-11-20T10:47:05;45.47;;;20.53;;
47539;SDS011;33280;52.152;21.052;2022-11-20T10:49:38;46.10;;;20.87;;
47539;SDS011;33280;52.152;21.052;2022-11-20T10:55:13;49.30;;;21.97;;
47539;SDS011;33280;52.152;21.052;2022-11-20T10:58:03;47.37;;;22.03;;
47539;SDS011;33280;52.152;21.052;2022-11-20T11:00:34;46.50;;;21.43;;
47539;SDS011;33280;52.152;21.052;2022-11-20T11:03:01;46.73;;;21.47;;
47539;SDS011;33280;52.152;21.052;2022-11-20T11:08:40;44.20;;;20.23;;
47539;SDS011;33280;52.152;21.052;2022-11-20T11:11:23;40.73;;;20.60;;
47539;SDS011;33280;52.152;21.052;2022-11-20T11:14:04;43.87;;;20.50;;
47539;SDS011;33280;52.152;21.052;2022-11-20T11:16:32;42.77;;;20.17;;
47539;SDS011;33280;52.152;21.052;2022-11-20T11:19:06;44.47;;;20.77;;
47539;SDS011;33280;52.152;21.052;2022-11-20T11:21:37;44.33;;;20.70;;
47539;SDS011;33280;52.152;21.052;2022-11-20T11:24:15;45.73;;;21.07;;
47539;SDS011;33280;52.152;21.052;2022-11-20T11:27:11;45.20;;;21.13;;
47539;SDS011;33280;52.152;21.052;2022-11-20T11:29:43;43.50;;;20.97;;
47539;SDS011;33280;52.152;21.052;2022-11-20T11:32:20;44.20;;;21.03;;
47539;SDS011;33280;52.152;21.052;2022-11-20T11:35:03;42.23;;;19.97;;
47539;SDS011;33280;52.152;21.052;2022-11-20T11:37:44;40.87;;;19.40;;
47539;SDS011;33280;52.152;21.052;2022-11-20T11:40:13;38.27;;;19.27;;
47539;SDS011;33280;52.152;21.052;2022-11-20T11:42:51;40.73;;;20.53;;
47539;SDS011;33280;52.152;21.052;2022-11-20T11:45:20;42.07;;;20.60;;
47539;SDS011;33280;52.152;21.052;2022-11-20T11:47:48;36.67;;;19.73;;
47539;SDS011;33280;52.152;21.052;2022-11-20T11:50:19;42.53;;;20.07;;
47539;SDS011;33280;52.152;21.052;2022-11-20T11:55:44;44.50;;;19.57;;
47539;SDS011;33280;52.152;21.052;2022-11-20T11:58:34;42.00;;;20.87;;
47539;SDS011;33280;52.152;21.052;2022-11-20T12:03:55;37.30;;;18.97;;
47539;SDS011;33280;52.152;21.052;2022-11-20T12:06:25;40.00;;;20.47;;
47539;SDS011;33280;52.152;21.052;2022-11-20T12:08:57;39.27;;;20.33;;
47539;SDS011;33280;52.152;21.052;2022-11-20T12:14:20;39.27;;;20.43;;
47539;SDS011;33280;52.152;21.052;2022-11-20T12:17:00;38.97;;;19.53;;
47539;SDS011;33280;52.152;21.052;2022-11-20T12:19:31;40.63;;;20.43;;
47539;SDS011;33280;52.152;21.052;2022-11-20T12:24:44;39.87;;;20.23;;
47539;SDS011;33280;52.152;21.052;2022-11-20T12:30:01;39.03;;;19.03;;
47539;SDS011;33280;52.152;21.052;2022-11-20T12:43:25;42.10;;;19.57;;
47539;SDS011;33280;52.152;21.052;2022-11-20T12:46:27;41.20;;;19.20;;
47539;SDS011;33280;52.152;21.052;2022-11-20T12:57:18;33.87;;;16.47;;
47539;SDS011;33280;52.152;21.052;2022-11-20T13:02:37;38.70;;;18.77;;
47539;SDS011;33280;52.152;21.052;2022-11-20T13:07:52;44.43;;;20.87;;
47539;SDS011;33280;52.152;21.052;2022-11-20T13:10:21;42.80;;;21.30;;
47539;SDS011;33280;52.152;21.052;2022-11-20T13:15:43;39.93;;;19.70;;
47539;SDS011;33280;52.152;21.052;2022-11-20T13:18:18;43.17;;;21.60;;
47539;SDS011;33280;52.152;21.052;2022-11-20T13:20:45;42.40;;;21.03;;
47539;SDS011;33280;52.152;21.052;2022-11-20T13:23:26;42.83;;;20.77;;
47539;SDS011;33280;52.152;21.052;2022-11-20T13:26:14;39.40;;;20.03;;
47539;SDS011;33280;52.152;21.052;2022-11-20T13:28:44;39.50;;;20.70;;
47539;SDS011;33280;52.152;21.052;2022-11-20T13:31:28;41.97;;;20.40;;
47539;SDS011;33280;52.152;21.052;2022-11-20T13:34:00;38.53;;;20.63;;
47539;SDS011;33280;52.152;21.052;2022-11-20T13:36:30;41.37;;;20.10;;
47539;SDS011;33280;52.152;21.052;2022-11-20T13:38:58;39.60;;;20.63;;
47539;SDS011;33280;52.152;21.052;2022-11-20T13:41:30;38.40;;;19.67;;
47539;SDS011;33280;52.152;21.052;2022-11-20T13:46:42;40.63;;;20.63;;
47539;SDS011;33280;52.152;21.052;2022-11-20T13:49:16;42.50;;;20.67;;
47539;SDS011;33280;52.152;21.052;2022-11-20T13:54:52;42.93;;;20.33;;
47539;SDS011;33280;52.152;21.052;2022-11-20T14:02:28;41.93;;;21.03;;
47539;SDS011;33280;52.152;21.052;2022-11-20T14:04:57;42.80;;;20.13;;
47539;SDS011;33280;52.152;21.052;2022-11-20T14:07:27;42.73;;;20.83;;
47539;SDS011;33280;52.152;21.052;2022-11-20T14:10:04;40.20;;;20.23;;
47539;SDS011;33280;52.152;21.052;2022-11-20T14:12:31;45.70;;;21.57;;
47539;SDS011;33280;52.152;21.052;2022-11-20T14:14:59;44.73;;;21.83;;
47539;SDS011;33280;52.152;21.052;2022-11-20T14:17:33;46.00;;;21.10;;
47539;SDS011;33280;52.152;21.052;2022-11-20T14:20:03;46.97;;;21.93;;
47539;SDS011;33280;52.152;21.052;2022-11-20T14:22:32;43.03;;;21.07;;
47539;SDS011;33280;52.152;21.052;2022-11-20T14:27:39;46.77;;;22.10;;
47539;SDS011;33280;52.152;21.052;2022-11-20T14:30:12;45.93;;;21.20;;
47539;SDS011;33280;52.152;21.052;2022-11-20T14:32:42;49.73;;;21.87;;
47539;SDS011;33280;52.152;21.052;2022-11-20T14:35:17;46.40;;;22.23;;
47539;SDS011;33280;52.152;21.052;2022-11-20T14:37:52;48.60;;;21.90;;
47539;SDS011;33280;52.152;21.052;2022-11-20T14:40:33;46.93;;;22.20;;
47539;SDS011;33280;52.152;21.052;2022-11-20T14:43:04;47.50;;;21.90;;
47539;SDS011;33280;52.152;21.052;2022-11-20T14:45:57;63.73;;;23.90;;
47539;SDS011;33280;52.152;21.052;2022-11-20T14:48:30;48.20;;;21.67;;
47539;SDS011;33280;52.152;21.052;2022-11-20T14:51:08;43.50;;;21.40;;
47539;SDS011;33280;52.152;21.052;2022-11-20T14:53:36;48.33;;;21.87;;
47539;SDS011;33280;52.152;21.052;2022-11-20T14:56:04;44.67;;;20.63;;
47539;SDS011;33280;52.152;21.052;2022-11-20T14:58:31;52.10;;;21.67;;
47539;SDS011;33280;52.152;21.052;2022-11-20T15:01:03;43.90;;;21.57;;
47539;SDS011;33280;52.152;21.052;2022-11-20T15:06:00;47.17;;;21.47;;
47539;SDS011;33280;52.152;21.052;2022-11-20T15:08:28;49.77;;;22.10;;
47539;SDS011;33280;52.152;21.052;2022-11-20T15:10:55;46.37;;;20.93;;
47539;SDS011;33280;52.152;21.052;2022-11-20T15:13:38;48.17;;;21.17;;
47539;SDS011;33280;52.152;21.052;2022-11-20T15:16:13;48.00;;;21.73;;
47539;SDS011;33280;52.152;21.052;2022-11-20T15:18:45;47.40;;;21.90;;
47539;SDS011;33280;52.152;21.052;2022-11-20T15:21:17;45.87;;;20.67;;
47539;SDS011;33280;52.152;21.052;2022-11-20T15:23:45;41.13;;;19.50;;
47539;SDS011;33280;52.152;21.052;2022-11-20T15:26:13;45.87;;;21.20;;
47539;SDS011;33280;52.152;21.052;2022-11-20T15:28:46;46.53;;;20.60;;
47539;SDS011;33280;52.152;21.052;2022-11-20T15:31:16;48.50;;;20.93;;
47539;SDS011;33280;52.152;21.052;2022-11-20T15:33:48;45.03;;;20.43;;
47539;SDS011;33280;52.152;21.052;2022-11-20T15:36:15;46.97;;;22.73;;
47539;SDS011;33280;52.152;21.052;2022-11-20T15:38:42;46.43;;;21.03;;
47539;SDS011;33280;52.152;21.052;2022-11-20T15:41:09;44.27;;;19.73;;
47539;SDS011;33280;52.152;21.052;2022-11-20T15:43:36;45.23;;;19.60;;
47539;SDS011;33280;52.152;21.052;2022-11-20T15:46:13;44.90;;;20.50;;
47539;SDS011;33280;52.152;21.052;2022-11-20T15:48:44;46.33;;;21.27;;
47539;SDS011;33280;52.152;21.052;2022-11-20T15:51:25;42.53;;;20.23;;
47539;SDS011;33280;52.152;21.052;2022-11-20T15:53:54;45.80;;;20.60;;
47539;SDS011;33280;52.152;21.052;2022-11-20T15:56:22;46.90;;;20.37;;
47539;SDS011;33280;52.152;21.052;2022-11-20T15:58:49;41.27;;;20.33;;
47539;SDS011;33280;52.152;21.052;2022-11-20T16:01:17;44.50;;;19.80;;
47539;SDS011;33280;52.152;21.052;2022-11-20T16:03:47;45.53;;;21.07;;